sensor_id;sensor_type;location;lat;lon;timestamp;P1;durP1;ratioP1;P2;durP2;ratioP2
15155;SDS011;7678;50.058;8.306;2022-07-12T00:00:27;1.30;;;1.10;;
15155;SDS011;7678;50.058;8.306;2022-07-12T00:02:56;1.93;;;1.00;;
15155;SDS011;7678;50.058;8.306;2022-07-12T00:05:26;1.63;;;1.00;;
15155;SDS011;7678;50.058;8.306;2022-07-12T00:07:55;1.27;;;1.00;;
15155;SDS011;7678;50.058;8.306;2022-07-12T00:10:24;5.67;;;1.40;;
15155;SDS011;7678;50.058;8.306;2022-07-12T00:12:52;1.40;;;1.20;;
15155;SDS011;7678;50.058;8.306;2022-07-12T00:15:21;1.63;;;1.20;;
15155;SDS011;7678;50.058;8.306;2022-07-12T00:17:49;1.30;;;1.20;;
15155;SDS011;7678;50.058;8.306;2022-07-12T00:20:19;2.70;;;1.13;;
15155;SDS011;7678;50.058;8.306;2022-07-12T00:22:49;1.63;;;1.30;;
15155;SDS011;7678;50.058;8.306;2022-07-12T00:25:17;1.70;;;1.30;;
15155;SDS011;7678;50.058;8.306;2022-07-12T00:27:45;1.30;;;1.20;;
15155;SDS011;7678;50.058;8.306;2022-07-12T00:30:13;1.10;;;1.00;;
15155;SDS011;7678;50.058;8.306;2022-07-12T00:32:42;1.57;;;1.17;;
15155;SDS011;7678;50.058;8.306;2022-07-12T00:35:10;1.40;;;1.10;;
15155;SDS011;7678;50.058;8.306;2022-07-12T00:37:38;1.27;;;1.17;;
15155;SDS011;7678;50.058;8.306;2022-07-12T00:40:09;1.87;;;1.20;;
15155;SDS011;7678;50.058;8.306;2022-07-12T00:42:38;1.30;;;1.20;;
15155;SDS011;7678;50.058;8.306;2022-07-12T00:45:07;1.70;;;1.33;;
15155;SDS011;7678;50.058;8.306;2022-07-12T00:47:37;1.83;;;1.27;;
15155;SDS011;7678;50.058;8.306;2022-07-12T00:50:07;2.90;;;1.27;;
15155;SDS011;7678;50.058;8.306;2022-07-12T00:52:37;2.17;;;1.43;;
15155;SDS011;7678;50.058;8.306;2022-07-12T00:55:06;2.40;;;1.30;;
15155;SDS011;7678;50.058;8.306;2022-07-12T00:57:36;1.53;;;1.40;;
15155;SDS011;7678;50.058;8.306;2022-07-12T01:00:07;1.40;;;1.30;;
15155;SDS011;7678;50.058;8.306;2022-07-12T01:02:36;1.80;;;1.53;;
15155;SDS011;7678;50.058;8.306;2022-07-12T01:05:05;2.70;;;1.93;;
15155;SDS011;7678;50.058;8.306;2022-07-12T01:07:35;2.60;;;1.87;;
15155;SDS011;7678;50.058;8.306;2022-07-12T01:10:04;1.80;;;1.50;;
15155;SDS011;7678;50.058;8.306;2022-07-12T01:12:34;2.00;;;1.70;;
15155;SDS011;7678;50.058;8.306;2022-07-12T01:15:04;3.63;;;1.60;;
15155;SDS011;7678;50.058;8.306;2022-07-12T01:17:33;1.80;;;1.70;;
15155;SDS011;7678;50.058;8.306;2022-07-12T01:20:02;3.53;;;1.67;;
15155;SDS011;7678;50.058;8.306;2022-07-12T01:22:33;2.70;;;1.77;;
15155;SDS011;7678;50.058;8.306;2022-07-12T01:25:03;2.30;;;1.80;;
15155;SDS011;7678;50.058;8.306;2022-07-12T01:27:33;2.30;;;1.70;;
15155;SDS011;7678;50.058;8.306;2022-07-12T01:30:02;1.57;;;1.47;;
15155;SDS011;7678;50.058;8.306;2022-07-12T01:32:30;2.10;;;1.87;;
15155;SDS011;7678;50.058;8.306;2022-07-12T01:35:01;2.87;;;1.77;;
15155;SDS011;7678;50.058;8.306;2022-07-12T01:37:31;3.40;;;2.20;;
15155;SDS011;7678;50.058;8.306;2022-07-12T01:40:03;2.10;;;1.80;;
15155;SDS011;7678;50.058;8.306;2022-07-12T01:42:33;3.30;;;1.90;;
15155;SDS011;7678;50.058;8.306;2022-07-12T01:45:03;2.23;;;1.73;;
15155;SDS011;7678;50.058;8.306;2022-07-12T01:47:33;1.70;;;1.60;;
15155;SDS011;7678;50.058;8.306;2022-07-12T01:50:03;2.00;;;1.80;;
15155;SDS011;7678;50.058;8.306;2022-07-12T01:52:33;2.40;;;2.00;;
15155;SDS011;7678;50.058;8.306;2022-07-12T01:55:03;2.20;;;1.70;;
15155;SDS011;7678;50.058;8.306;2022-07-12T01:57:32;2.40;;;1.70;;
15155;SDS011;7678;50.058;8.306;2022-07-12T02:00:01;2.07;;;1.80;;
15155;SDS011;7678;50.058;8.306;2022-07-12T02:02:31;2.47;;;1.80;;
15155;SDS011;7678;50.058;8.306;2022-07-12T02:05:00;2.07;;;1.50;;
15155;SDS011;7678;50.058;8.306;2022-07-12T02:07:28;2.70;;;1.90;;
15155;SDS011;7678;50.058;8.306;2022-07-12T02:09:57;2.10;;;1.77;;
15155;SDS011;7678;50.058;8.306;2022-07-12T02:12:27;1.87;;;1.40;;
15155;SDS011;7678;50.058;8.306;2022-07-12T02:14:55;2.30;;;1.80;;
15155;SDS011;7678;50.058;8.306;2022-07-12T02:17:23;3.97;;;2.00;;
15155;SDS011;7678;50.058;8.306;2022-07-12T02:19:52;2.37;;;1.90;;
15155;SDS011;7678;50.058;8.306;2022-07-12T02:22:20;2.77;;;2.00;;
15155;SDS011;7678;50.058;8.306;2022-07-12T02:24:48;2.10;;;1.90;;
15155;SDS011;7678;50.058;8.306;2022-07-12T02:27:17;2.13;;;1.80;;
15155;SDS011;7678;50.058;8.306;2022-07-12T02:29:46;2.97;;;2.10;;
15155;SDS011;7678;50.058;8.306;2022-07-12T02:32:14;2.63;;;2.23;;
15155;SDS011;7678;50.058;8.306;2022-07-12T02:34:42;2.10;;;1.83;;
15155;SDS011;7678;50.058;8.306;2022-07-12T02:37:10;3.17;;;2.20;;
15155;SDS011;7678;50.058;8.306;2022-07-12T02:39:38;4.20;;;2.20;;
15155;SDS011;7678;50.058;8.306;2022-07-12T02:42:06;2.43;;;2.00;;
15155;SDS011;7678;50.058;8.306;2022-07-12T02:44:35;3.20;;;2.10;;
15155;SDS011;7678;50.058;8.306;2022-07-12T02:47:04;2.40;;;2.20;;
15155;SDS011;7678;50.058;8.306;2022-07-12T02:49:32;2.77;;;2.20;;
15155;SDS011;7678;50.058;8.306;2022-07-12T02:52:01;3.70;;;2.07;;
15155;SDS011;7678;50.058;8.306;2022-07-12T02:54:29;2.63;;;2.13;;
15155;SDS011;7678;50.058;8.306;2022-07-12T02:56:57;2.13;;;1.90;;
15155;SDS011;7678;50.058;8.306;2022-07-12T02:59:25;3.03;;;2.30;;
15155;SDS011;7678;50.058;8.306;2022-07-12T03:01:53;2.50;;;2.20;;
15155;SDS011;7678;50.058;8.306;2022-07-12T03:04:23;2.80;;;2.30;;
15155;SDS011;7678;50.058;8.306;2022-07-12T03:06:51;2.00;;;1.73;;
15155;SDS011;7678;50.058;8.306;2022-07-12T03:09:19;2.00;;;1.80;;
15155;SDS011;7678;50.058;8.306;2022-07-12T03:11:47;2.87;;;1.80;;
15155;SDS011;7678;50.058;8.306;2022-07-12T03:14:15;2.97;;;1.90;;
15155;SDS011;7678;50.058;8.306;2022-07-12T03:16:44;1.70;;;1.60;;
15155;SDS011;7678;50.058;8.306;2022-07-12T03:19:12;2.43;;;1.83;;
15155;SDS011;7678;50.058;8.306;2022-07-12T03:21:42;2.20;;;1.90;;
15155;SDS011;7678;50.058;8.306;2022-07-12T03:24:10;1.97;;;1.80;;
15155;SDS011;7678;50.058;8.306;2022-07-12T03:26:38;1.80;;;1.70;;
15155;SDS011;7678;50.058;8.306;2022-07-12T03:29:06;2.53;;;1.93;;
15155;SDS011;7678;50.058;8.306;2022-07-12T03:31:35;2.27;;;2.03;;
15155;SDS011;7678;50.058;8.306;2022-07-12T03:34:04;2.27;;;1.90;;
15155;SDS011;7678;50.058;8.306;2022-07-12T03:36:32;2.47;;;2.10;;
15155;SDS011;7678;50.058;8.306;2022-07-12T03:39:02;2.10;;;1.90;;
15155;SDS011;7678;50.058;8.306;2022-07-12T03:41:30;3.07;;;2.10;;
15155;SDS011;7678;50.058;8.306;2022-07-12T03:43:58;2.53;;;2.20;;
15155;SDS011;7678;50.058;8.306;2022-07-12T03:46:26;2.33;;;2.13;;
15155;SDS011;7678;50.058;8.306;2022-07-12T03:48:55;2.57;;;2.20;;
15155;SDS011;7678;50.058;8.306;2022-07-12T03:51:23;3.33;;;2.40;;
15155;SDS011;7678;50.058;8.306;2022-07-12T03:53:51;2.10;;;1.90;;
15155;SDS011;7678;50.058;8.306;2022-07-12T03:56:21;2.17;;;1.97;;
15155;SDS011;7678;50.058;8.306;2022-07-12T03:59:06;3.37;;;1.87;;
15155;SDS011;7678;50.058;8.306;2022-07-12T04:01:34;2.30;;;2.03;;
15155;SDS011;7678;50.058;8.306;2022-07-12T04:04:05;2.13;;;1.73;;
15155;SDS011;7678;50.058;8.306;2022-07-12T04:06:33;3.10;;;2.17;;
15155;SDS011;7678;50.058;8.306;2022-07-12T04:09:01;3.67;;;2.43;;
15155;SDS011;7678;50.058;8.306;2022-07-12T04:11:31;2.33;;;2.03;;
15155;SDS011;7678;50.058;8.306;2022-07-12T04:14:00;2.53;;;2.00;;
15155;SDS011;7678;50.058;8.306;2022-07-12T04:16:28;3.87;;;2.10;;
15155;SDS011;7678;50.058;8.306;2022-07-12T04:18:58;4.20;;;2.43;;
15155;SDS011;7678;50.058;8.306;2022-07-12T04:21:27;2.97;;;2.20;;
15155;SDS011;7678;50.058;8.306;2022-07-12T04:23:55;3.03;;;2.13;;
15155;SDS011;7678;50.058;8.306;2022-07-12T04:26:23;2.37;;;1.97;;
15155;SDS011;7678;50.058;8.306;2022-07-12T04:28:52;2.93;;;1.93;;
15155;SDS011;7678;50.058;8.306;2022-07-12T04:31:25;2.13;;;1.93;;
15155;SDS011;7678;50.058;8.306;2022-07-12T04:33:55;2.87;;;2.20;;
15155;SDS011;7678;50.058;8.306;2022-07-12T04:36:23;2.20;;;2.00;;
15155;SDS011;7678;50.058;8.306;2022-07-12T04:38:51;3.10;;;2.10;;
15155;SDS011;7678;50.058;8.306;2022-07-12T04:41:20;2.70;;;1.90;;
15155;SDS011;7678;50.058;8.306;2022-07-12T04:43:49;2.40;;;1.83;;
15155;SDS011;7678;50.058;8.306;2022-07-12T04:46:19;3.37;;;2.13;;
15155;SDS011;7678;50.058;8.306;2022-07-12T04:48:47;2.13;;;1.90;;
15155;SDS011;7678;50.058;8.306;2022-07-12T04:51:15;2.27;;;2.07;;
15155;SDS011;7678;50.058;8.306;2022-07-12T04:53:44;2.13;;;1.93;;
15155;SDS011;7678;50.058;8.306;2022-07-12T04:56:12;3.43;;;1.97;;
15155;SDS011;7678;50.058;8.306;2022-07-12T04:58:40;2.57;;;2.00;;
15155;SDS011;7678;50.058;8.306;2022-07-12T05:01:09;3.90;;;2.00;;
15155;SDS011;7678;50.058;8.306;2022-07-12T05:03:38;4.37;;;2.33;;
15155;SDS011;7678;50.058;8.306;2022-07-12T05:06:07;2.40;;;2.20;;
15155;SDS011;7678;50.058;8.306;2022-07-12T05:08:35;2.60;;;2.40;;
15155;SDS011;7678;50.058;8.306;2022-07-12T05:11:05;3.60;;;2.17;;
15155;SDS011;7678;50.058;8.306;2022-07-12T05:13:33;3.73;;;2.60;;
15155;SDS011;7678;50.058;8.306;2022-07-12T05:16:01;2.67;;;2.10;;
15155;SDS011;7678;50.058;8.306;2022-07-12T05:18:30;2.83;;;2.00;;
15155;SDS011;7678;50.058;8.306;2022-07-12T05:20:59;3.37;;;2.13;;
15155;SDS011;7678;50.058;8.306;2022-07-12T05:23:28;2.07;;;1.87;;
15155;SDS011;7678;50.058;8.306;2022-07-12T05:25:56;2.43;;;2.23;;
15155;SDS011;7678;50.058;8.306;2022-07-12T05:28:24;2.63;;;2.20;;
15155;SDS011;7678;50.058;8.306;2022-07-12T05:30:52;2.27;;;2.07;;
15155;SDS011;7678;50.058;8.306;2022-07-12T05:33:20;3.20;;;2.40;;
15155;SDS011;7678;50.058;8.306;2022-07-12T05:35:48;2.60;;;2.40;;
15155;SDS011;7678;50.058;8.306;2022-07-12T05:38:19;2.80;;;2.30;;
15155;SDS011;7678;50.058;8.306;2022-07-12T05:40:47;3.67;;;2.27;;
15155;SDS011;7678;50.058;8.306;2022-07-12T05:43:15;2.63;;;2.43;;
15155;SDS011;7678;50.058;8.306;2022-07-12T05:45:43;2.70;;;2.07;;
15155;SDS011;7678;50.058;8.306;2022-07-12T05:48:13;2.47;;;2.27;;
15155;SDS011;7678;50.058;8.306;2022-07-12T05:50:41;2.60;;;2.10;;
15155;SDS011;7678;50.058;8.306;2022-07-12T05:53:10;2.30;;;2.10;;
15155;SDS011;7678;50.058;8.306;2022-07-12T05:55:51;2.60;;;2.00;;
15155;SDS011;7678;50.058;8.306;2022-07-12T05:58:20;2.37;;;2.17;;
15155;SDS011;7678;50.058;8.306;2022-07-12T06:00:49;3.20;;;2.27;;
15155;SDS011;7678;50.058;8.306;2022-07-12T06:03:17;3.20;;;2.10;;
15155;SDS011;7678;50.058;8.306;2022-07-12T06:05:45;2.30;;;2.10;;
15155;SDS011;7678;50.058;8.306;2022-07-12T06:08:14;3.33;;;2.10;;
15155;SDS011;7678;50.058;8.306;2022-07-12T06:10:42;2.37;;;2.00;;
15155;SDS011;7678;50.058;8.306;2022-07-12T06:13:11;2.00;;;1.90;;
15155;SDS011;7678;50.058;8.306;2022-07-12T06:15:40;4.30;;;2.10;;
15155;SDS011;7678;50.058;8.306;2022-07-12T06:18:08;2.07;;;1.80;;
15155;SDS011;7678;50.058;8.306;2022-07-12T06:20:36;1.93;;;1.73;;
15155;SDS011;7678;50.058;8.306;2022-07-12T06:23:04;2.00;;;1.70;;
15155;SDS011;7678;50.058;8.306;2022-07-12T06:25:33;2.13;;;1.87;;
15155;SDS011;7678;50.058;8.306;2022-07-12T06:28:11;3.50;;;1.90;;
15155;SDS011;7678;50.058;8.306;2022-07-12T06:30:39;1.93;;;1.60;;
15155;SDS011;7678;50.058;8.306;2022-07-12T06:33:08;2.13;;;1.93;;
15155;SDS011;7678;50.058;8.306;2022-07-12T06:35:36;3.33;;;2.10;;
15155;SDS011;7678;50.058;8.306;2022-07-12T06:38:04;3.07;;;2.30;;
15155;SDS011;7678;50.058;8.306;2022-07-12T06:40:32;4.23;;;2.00;;
15155;SDS011;7678;50.058;8.306;2022-07-12T06:43:02;2.63;;;2.33;;
15155;SDS011;7678;50.058;8.306;2022-07-12T06:45:36;2.23;;;1.90;;
15155;SDS011;7678;50.058;8.306;2022-07-12T06:48:05;3.30;;;2.00;;
15155;SDS011;7678;50.058;8.306;2022-07-12T06:50:36;2.03;;;1.83;;
15155;SDS011;7678;50.058;8.306;2022-07-12T06:53:06;3.63;;;1.97;;
15155;SDS011;7678;50.058;8.306;2022-07-12T06:55:34;2.37;;;2.13;;
15155;SDS011;7678;50.058;8.306;2022-07-12T06:58:03;3.37;;;2.13;;
15155;SDS011;7678;50.058;8.306;2022-07-12T07:07:58;2.00;;;1.80;;
15155;SDS011;7678;50.058;8.306;2022-07-12T07:10:35;2.60;;;1.53;;
15155;SDS011;7678;50.058;8.306;2022-07-12T07:13:04;2.00;;;1.70;;
15155;SDS011;7678;50.058;8.306;2022-07-12T07:15:35;2.73;;;2.17;;
15155;SDS011;7678;50.058;8.306;2022-07-12T07:18:04;1.90;;;1.40;;
15155;SDS011;7678;50.058;8.306;2022-07-12T07:20:37;2.33;;;1.83;;
15155;SDS011;7678;50.058;8.306;2022-07-12T07:23:11;2.77;;;1.80;;
15155;SDS011;7678;50.058;8.306;2022-07-12T07:25:45;2.13;;;1.77;;
15155;SDS011;7678;50.058;8.306;2022-07-12T07:28:20;1.50;;;1.40;;
15155;SDS011;7678;50.058;8.306;2022-07-12T07:31:43;3.00;;;1.53;;
15155;SDS011;7678;50.058;8.306;2022-07-12T07:34:11;2.07;;;1.60;;
15155;SDS011;7678;50.058;8.306;2022-07-12T07:36:39;2.80;;;1.60;;
15155;SDS011;7678;50.058;8.306;2022-07-12T07:56:33;1.63;;;1.53;;
15155;SDS011;7678;50.058;8.306;2022-07-12T07:59:02;2.20;;;1.60;;
15155;SDS011;7678;50.058;8.306;2022-07-12T08:01:30;6.70;;;1.53;;
15155;SDS011;7678;50.058;8.306;2022-07-12T08:04:15;1.50;;;1.17;;
15155;SDS011;7678;50.058;8.306;2022-07-12T08:06:45;1.83;;;1.40;;
15155;SDS011;7678;50.058;8.306;2022-07-12T09:10:57;1.07;;;0.90;;
15155;SDS011;7678;50.058;8.306;2022-07-12T09:13:47;1.20;;;0.83;;
15155;SDS011;7678;50.058;8.306;2022-07-12T09:16:46;1.43;;;1.00;;
15155;SDS011;7678;50.058;8.306;2022-07-12T09:19:53;1.63;;;1.00;;
15155;SDS011;7678;50.058;8.306;2022-07-12T09:22:28;1.33;;;1.00;;
15155;SDS011;7678;50.058;8.306;2022-07-12T09:24:57;1.27;;;1.00;;
15155;SDS011;7678;50.058;8.306;2022-07-12T09:27:41;3.13;;;1.10;;
15155;SDS011;7678;50.058;8.306;2022-07-12T09:30:46;1.63;;;0.90;;
15155;SDS011;7678;50.058;8.306;2022-07-12T09:33:25;1.10;;;1.00;;
15155;SDS011;7678;50.058;8.306;2022-07-12T09:36:15;1.20;;;1.10;;
15155;SDS011;7678;50.058;8.306;2022-07-12T09:38:52;1.10;;;1.00;;
15155;SDS011;7678;50.058;8.306;2022-07-12T09:41:28;1.23;;;1.05;;
15155;SDS011;7678;50.058;8.306;2022-07-12T09:43:58;1.60;;;1.00;;
15155;SDS011;7678;50.058;8.306;2022-07-12T09:46:30;1.47;;;1.07;;
15155;SDS011;7678;50.058;8.306;2022-07-12T09:49:01;1.60;;;0.95;;
15155;SDS011;7678;50.058;8.306;2022-07-12T10:24:10;1.10;;;1.00;;
15155;SDS011;7678;50.058;8.306;2022-07-12T10:27:48;1.17;;;1.00;;
15155;SDS011;7678;50.058;8.306;2022-07-12T10:30:19;2.03;;;0.93;;
15155;SDS011;7678;50.058;8.306;2022-07-12T10:32:52;3.20;;;0.93;;
15155;SDS011;7678;50.058;8.306;2022-07-12T10:35:29;1.97;;;0.80;;
15155;SDS011;7678;50.058;8.306;2022-07-12T10:38:17;3.70;;;0.97;;
15155;SDS011;7678;50.058;8.306;2022-07-12T11:22:37;0.53;;;0.53;;
15155;SDS011;7678;50.058;8.306;2022-07-12T11:25:27;0.73;;;0.60;;
15155;SDS011;7678;50.058;8.306;2022-07-12T11:28:48;0.80;;;0.70;;
15155;SDS011;7678;50.058;8.306;2022-07-12T11:36:24;0.65;;;0.60;;
15155;SDS011;7678;50.058;8.306;2022-07-12T11:43:01;0.98;;;0.70;;
15155;SDS011;7678;50.058;8.306;2022-07-12T11:45:55;1.33;;;0.80;;
15155;SDS011;7678;50.058;8.306;2022-07-12T11:48:45;0.98;;;0.80;;
15155;SDS011;7678;50.058;8.306;2022-07-12T11:51:17;1.75;;;0.90;;
15155;SDS011;7678;50.058;8.306;2022-07-12T11:54:38;0.77;;;0.77;;
15155;SDS011;7678;50.058;8.306;2022-07-12T11:57:20;1.75;;;0.90;;
15155;SDS011;7678;50.058;8.306;2022-07-12T12:02:56;4.28;;;0.90;;
15155;SDS011;7678;50.058;8.306;2022-07-12T12:06:13;1.05;;;0.65;;
15155;SDS011;7678;50.058;8.306;2022-07-12T12:09:16;5.95;;;1.00;;
15155;SDS011;7678;50.058;8.306;2022-07-12T12:11:58;5.80;;;0.75;;
15155;SDS011;7678;50.058;8.306;2022-07-12T12:15:22;1.50;;;0.70;;
15155;SDS011;7678;50.058;8.306;2022-07-12T12:18:01;0.90;;;0.80;;
15155;SDS011;7678;50.058;8.306;2022-07-12T12:21:11;2.83;;;0.93;;
15155;SDS011;7678;50.058;8.306;2022-07-12T12:47:26;0.90;;;0.70;;
15155;SDS011;7678;50.058;8.306;2022-07-12T12:50:16;0.70;;;0.70;;
15155;SDS011;7678;50.058;8.306;2022-07-12T12:53:35;0.60;;;0.60;;
15155;SDS011;7678;50.058;8.306;2022-07-12T12:56:58;1.90;;;0.73;;
15155;SDS011;7678;50.058;8.306;2022-07-12T13:00:49;0.93;;;0.80;;
15155;SDS011;7678;50.058;8.306;2022-07-12T13:20:45;1.52;;;0.80;;
15155;SDS011;7678;50.058;8.306;2022-07-12T13:24:02;0.82;;;0.60;;
15155;SDS011;7678;50.058;8.306;2022-07-12T13:26:59;1.20;;;0.93;;
15155;SDS011;7678;50.058;8.306;2022-07-12T13:33:36;1.48;;;0.60;;
15155;SDS011;7678;50.058;8.306;2022-07-12T13:37:14;3.08;;;0.90;;
15155;SDS011;7678;50.058;8.306;2022-07-12T13:43:48;2.67;;;0.60;;
15155;SDS011;7678;50.058;8.306;2022-07-12T13:47:18;0.82;;;0.80;;
15155;SDS011;7678;50.058;8.306;2022-07-12T13:50:35;0.82;;;0.60;;
15155;SDS011;7678;50.058;8.306;2022-07-12T14:07:41;1.00;;;0.80;;
15155;SDS011;7678;50.058;8.306;2022-07-12T14:11:28;0.95;;;0.60;;
15155;SDS011;7678;50.058;8.306;2022-07-12T14:14:32;1.02;;;0.55;;
15155;SDS011;7678;50.058;8.306;2022-07-12T14:51:18;1.10;;;0.90;;
15155;SDS011;7678;50.058;8.306;2022-07-12T14:54:20;0.80;;;0.80;;
15155;SDS011;7678;50.058;8.306;2022-07-12T14:57:32;0.80;;;0.75;;
15155;SDS011;7678;50.058;8.306;2022-07-12T15:00:29;1.75;;;0.75;;
15155;SDS011;7678;50.058;8.306;2022-07-12T15:03:03;2.45;;;1.00;;
15155;SDS011;7678;50.058;8.306;2022-07-12T15:06:00;2.67;;;0.77;;
15155;SDS011;7678;50.058;8.306;2022-07-12T15:08:31;0.70;;;0.70;;
15155;SDS011;7678;50.058;8.306;2022-07-12T15:11:10;0.90;;;0.80;;
15155;SDS011;7678;50.058;8.306;2022-07-12T15:13:49;0.82;;;0.70;;
15155;SDS011;7678;50.058;8.306;2022-07-12T16:30:27;1.08;;;0.80;;
15155;SDS011;7678;50.058;8.306;2022-07-12T16:33:19;3.03;;;0.80;;
15155;SDS011;7678;50.058;8.306;2022-07-12T17:23:37;1.10;;;0.93;;
15155;SDS011;7678;50.058;8.306;2022-07-12T17:26:36;1.38;;;0.90;;
15155;SDS011;7678;50.058;8.306;2022-07-12T17:29:23;2.40;;;0.93;;
15155;SDS011;7678;50.058;8.306;2022-07-12T17:31:52;1.17;;;0.98;;
15155;SDS011;7678;50.058;8.306;2022-07-12T17:34:23;1.98;;;0.90;;
15155;SDS011;7678;50.058;8.306;2022-07-12T17:36:58;2.85;;;0.80;;
15155;SDS011;7678;50.058;8.306;2022-07-12T17:39:54;1.33;;;1.20;;
15155;SDS011;7678;50.058;8.306;2022-07-12T17:42:23;1.10;;;0.82;;
15155;SDS011;7678;50.058;8.306;2022-07-12T17:44:54;1.63;;;1.00;;
15155;SDS011;7678;50.058;8.306;2022-07-12T17:47:29;1.25;;;0.85;;
15155;SDS011;7678;50.058;8.306;2022-07-12T17:50:09;0.80;;;0.80;;
15155;SDS011;7678;50.058;8.306;2022-07-12T17:52:42;0.80;;;0.80;;
15155;SDS011;7678;50.058;8.306;2022-07-12T17:55:16;0.90;;;0.80;;
15155;SDS011;7678;50.058;8.306;2022-07-12T17:57:52;1.33;;;0.70;;
15155;SDS011;7678;50.058;8.306;2022-07-12T18:00:38;2.35;;;0.90;;
15155;SDS011;7678;50.058;8.306;2022-07-12T18:03:09;0.73;;;0.73;;
15155;SDS011;7678;50.058;8.306;2022-07-12T18:05:53;1.73;;;0.80;;
15155;SDS011;7678;50.058;8.306;2022-07-12T18:08:22;0.82;;;0.75;;
15155;SDS011;7678;50.058;8.306;2022-07-12T18:11:22;1.25;;;1.00;;
15155;SDS011;7678;50.058;8.306;2022-07-12T18:14:09;2.50;;;0.80;;
15155;SDS011;7678;50.058;8.306;2022-07-12T18:16:55;2.40;;;0.85;;
15155;SDS011;7678;50.058;8.306;2022-07-12T18:19:41;1.75;;;1.00;;
15155;SDS011;7678;50.058;8.306;2022-07-12T18:22:12;1.30;;;1.20;;
15155;SDS011;7678;50.058;8.306;2022-07-12T18:24:43;1.15;;;0.80;;
15155;SDS011;7678;50.058;8.306;2022-07-12T18:27:15;1.05;;;0.93;;
15155;SDS011;7678;50.058;8.306;2022-07-12T18:29:47;0.97;;;0.87;;
15155;SDS011;7678;50.058;8.306;2022-07-12T18:32:17;1.37;;;1.00;;
15155;SDS011;7678;50.058;8.306;2022-07-12T18:35:00;1.80;;;0.93;;
15155;SDS011;7678;50.058;8.306;2022-07-12T18:37:32;0.80;;;0.80;;
15155;SDS011;7678;50.058;8.306;2022-07-12T18:40:02;0.77;;;0.73;;
15155;SDS011;7678;50.058;8.306;2022-07-12T18:45:43;0.80;;;0.80;;
15155;SDS011;7678;50.058;8.306;2022-07-12T18:48:18;0.97;;;0.80;;
15155;SDS011;7678;50.058;8.306;2022-07-12T18:50:48;1.80;;;0.70;;
15155;SDS011;7678;50.058;8.306;2022-07-12T18:53:38;2.70;;;0.80;;
15155;SDS011;7678;50.058;8.306;2022-07-12T18:56:21;2.47;;;1.07;;
15155;SDS011;7678;50.058;8.306;2022-07-12T18:58:52;0.70;;;0.70;;
15155;SDS011;7678;50.058;8.306;2022-07-12T19:14:43;0.90;;;0.70;;
15155;SDS011;7678;50.058;8.306;2022-07-12T19:17:27;3.73;;;0.70;;
15155;SDS011;7678;50.058;8.306;2022-07-12T19:19:56;1.73;;;0.90;;
15155;SDS011;7678;50.058;8.306;2022-07-12T19:22:25;1.30;;;1.00;;
15155;SDS011;7678;50.058;8.306;2022-07-12T19:24:57;1.70;;;0.90;;
15155;SDS011;7678;50.058;8.306;2022-07-12T19:27:26;2.57;;;1.20;;
15155;SDS011;7678;50.058;8.306;2022-07-12T19:29:56;1.03;;;0.90;;
15155;SDS011;7678;50.058;8.306;2022-07-12T19:32:25;4.00;;;1.10;;
15155;SDS011;7678;50.058;8.306;2022-07-12T19:34:54;1.47;;;1.00;;
15155;SDS011;7678;50.058;8.306;2022-07-12T19:37:25;1.70;;;0.90;;
15155;SDS011;7678;50.058;8.306;2022-07-12T19:39:53;1.50;;;1.27;;
15155;SDS011;7678;50.058;8.306;2022-07-12T19:42:30;4.97;;;1.33;;
15155;SDS011;7678;50.058;8.306;2022-07-12T19:45:00;1.20;;;1.10;;
15155;SDS011;7678;50.058;8.306;2022-07-12T19:47:33;1.23;;;1.03;;
15155;SDS011;7678;50.058;8.306;2022-07-12T19:50:03;3.07;;;0.90;;
15155;SDS011;7678;50.058;8.306;2022-07-12T19:52:35;1.87;;;1.27;;
15155;SDS011;7678;50.058;8.306;2022-07-12T19:55:04;4.30;;;1.13;;
15155;SDS011;7678;50.058;8.306;2022-07-12T19:57:34;1.47;;;0.93;;
15155;SDS011;7678;50.058;8.306;2022-07-12T20:00:04;1.00;;;0.90;;
15155;SDS011;7678;50.058;8.306;2022-07-12T20:02:35;1.27;;;0.90;;
15155;SDS011;7678;50.058;8.306;2022-07-12T20:05:04;2.27;;;0.83;;
15155;SDS011;7678;50.058;8.306;2022-07-12T20:07:33;1.73;;;0.80;;
15155;SDS011;7678;50.058;8.306;2022-07-12T20:10:02;4.77;;;1.20;;
15155;SDS011;7678;50.058;8.306;2022-07-12T20:12:31;6.13;;;1.17;;
15155;SDS011;7678;50.058;8.306;2022-07-12T20:15:02;2.00;;;0.93;;
15155;SDS011;7678;50.058;8.306;2022-07-12T20:17:33;3.67;;;1.00;;
15155;SDS011;7678;50.058;8.306;2022-07-12T20:20:04;3.73;;;1.10;;
15155;SDS011;7678;50.058;8.306;2022-07-12T20:22:33;0.90;;;0.70;;
15155;SDS011;7678;50.058;8.306;2022-07-12T20:25:04;1.37;;;1.00;;
15155;SDS011;7678;50.058;8.306;2022-07-12T20:27:34;2.00;;;0.97;;
15155;SDS011;7678;50.058;8.306;2022-07-12T20:30:05;2.27;;;0.93;;
15155;SDS011;7678;50.058;8.306;2022-07-12T20:32:34;2.80;;;1.33;;
15155;SDS011;7678;50.058;8.306;2022-07-12T20:35:24;1.80;;;1.07;;
15155;SDS011;7678;50.058;8.306;2022-07-12T20:37:53;4.73;;;1.00;;
15155;SDS011;7678;50.058;8.306;2022-07-12T20:40:27;5.93;;;1.10;;
15155;SDS011;7678;50.058;8.306;2022-07-12T20:49:42;1.70;;;1.60;;
15155;SDS011;7678;50.058;8.306;2022-07-12T20:52:11;3.53;;;1.20;;
15155;SDS011;7678;50.058;8.306;2022-07-12T20:54:40;2.40;;;1.43;;
15155;SDS011;7678;50.058;8.306;2022-07-12T20:57:09;1.63;;;1.10;;
15155;SDS011;7678;50.058;8.306;2022-07-12T20:59:38;3.67;;;1.10;;
15155;SDS011;7678;50.058;8.306;2022-07-12T21:02:09;1.83;;;1.10;;
15155;SDS011;7678;50.058;8.306;2022-07-12T21:04:41;1.37;;;1.13;;
15155;SDS011;7678;50.058;8.306;2022-07-12T21:07:16;4.20;;;1.10;;
15155;SDS011;7678;50.058;8.306;2022-07-12T21:09:46;5.63;;;1.13;;
15155;SDS011;7678;50.058;8.306;2022-07-12T21:12:16;1.33;;;1.07;;
15155;SDS011;7678;50.058;8.306;2022-07-12T21:14:44;2.03;;;0.97;;
15155;SDS011;7678;50.058;8.306;2022-07-12T21:17:14;3.90;;;1.00;;
15155;SDS011;7678;50.058;8.306;2022-07-12T21:19:42;1.87;;;0.80;;
15155;SDS011;7678;50.058;8.306;2022-07-12T21:22:10;1.60;;;0.93;;
15155;SDS011;7678;50.058;8.306;2022-07-12T21:24:38;1.10;;;0.93;;
15155;SDS011;7678;50.058;8.306;2022-07-12T21:27:06;1.40;;;1.07;;
15155;SDS011;7678;50.058;8.306;2022-07-12T21:29:36;1.57;;;1.07;;
15155;SDS011;7678;50.058;8.306;2022-07-12T21:32:05;0.87;;;0.83;;
15155;SDS011;7678;50.058;8.306;2022-07-12T21:34:36;1.80;;;1.20;;
15155;SDS011;7678;50.058;8.306;2022-07-12T21:37:04;1.40;;;1.23;;
15155;SDS011;7678;50.058;8.306;2022-07-12T21:39:33;1.27;;;0.90;;
15155;SDS011;7678;50.058;8.306;2022-07-12T21:42:01;1.20;;;1.10;;
15155;SDS011;7678;50.058;8.306;2022-07-12T21:44:29;2.50;;;0.90;;
15155;SDS011;7678;50.058;8.306;2022-07-12T21:46:58;1.13;;;0.90;;
15155;SDS011;7678;50.058;8.306;2022-07-12T21:49:26;1.57;;;1.27;;
15155;SDS011;7678;50.058;8.306;2022-07-12T21:51:56;1.03;;;0.93;;
15155;SDS011;7678;50.058;8.306;2022-07-12T21:54:25;3.00;;;1.10;;
15155;SDS011;7678;50.058;8.306;2022-07-12T21:56:53;1.87;;;1.40;;
15155;SDS011;7678;50.058;8.306;2022-07-12T21:59:21;2.43;;;1.30;;
15155;SDS011;7678;50.058;8.306;2022-07-12T22:01:49;2.07;;;1.20;;
15155;SDS011;7678;50.058;8.306;2022-07-12T22:04:19;2.17;;;1.10;;
15155;SDS011;7678;50.058;8.306;2022-07-12T22:06:47;1.20;;;1.10;;
15155;SDS011;7678;50.058;8.306;2022-07-12T22:09:16;1.13;;;1.03;;
15155;SDS011;7678;50.058;8.306;2022-07-12T22:11:45;3.90;;;1.33;;
15155;SDS011;7678;50.058;8.306;2022-07-12T22:14:13;4.30;;;1.10;;
15155;SDS011;7678;50.058;8.306;2022-07-12T22:16:41;1.33;;;1.10;;
15155;SDS011;7678;50.058;8.306;2022-07-12T22:19:10;1.87;;;1.20;;
15155;SDS011;7678;50.058;8.306;2022-07-12T22:21:38;1.10;;;1.00;;
15155;SDS011;7678;50.058;8.306;2022-07-12T22:24:06;1.40;;;1.10;;
15155;SDS011;7678;50.058;8.306;2022-07-12T22:26:36;1.20;;;1.10;;
15155;SDS011;7678;50.058;8.306;2022-07-12T22:29:04;4.27;;;1.13;;
15155;SDS011;7678;50.058;8.306;2022-07-12T22:31:33;2.63;;;1.03;;
15155;SDS011;7678;50.058;8.306;2022-07-12T22:34:01;1.00;;;0.90;;
15155;SDS011;7678;50.058;8.306;2022-07-12T22:36:30;1.20;;;1.10;;
15155;SDS011;7678;50.058;8.306;2022-07-12T22:38:58;1.33;;;1.10;;